Time;durP1;ratioP1;P1;durP2;ratioP2;P2;SDS_P1;SDS_P2;PMS_P1;PMS_P2;Temp;Humidity;BMP_temperature;BMP_pressure;BME280_temperature;BME280_humidity;BME280_pressure;Samples;Min_cycle;Max_cycle;Signal;HPM_P1;HPM_P2
2022/02/08 00:00:33;;;;;;;5.80;1.03;;;4.70;99.90;;;;;;5075505;28;20521;-83
2022/02/08 00:03:01;;;;;;;8.57;1.10;;;4.70;99.90;;;;;;5075327;28;20419;-84
2022/02/08 00:05:27;;;;;;;7.87;1.03;;;4.70;99.90;;;;;;5075546;28;20447;-83
2022/02/08 00:07:54;;;;;;;12.37;2.13;;;4.70;99.90;;;;;;5075516;28;20577;-81
2022/02/08 00:10:20;;;;;;;5.93;0.90;;;4.70;99.90;;;;;;5075278;28;20175;-81
2022/02/08 00:12:46;;;;;;;6.40;0.60;;;4.70;99.90;;;;;;5075455;28;20934;-81
2022/02/08 00:15:12;;;;;;;6.47;1.10;;;4.80;99.90;;;;;;5057688;28;20423;-83
2022/02/08 00:17:38;;;;;;;10.40;0.97;;;4.80;99.90;;;;;;5075477;28;20322;-81
2022/02/08 00:20:07;;;;;;;1.93;1.10;;;4.90;99.90;;;;;;5075573;28;20507;-82
2022/02/08 00:22:34;;;;;;;8.13;1.17;;;4.70;99.90;;;;;;5057593;28;20370;-84
2022/02/08 00:25:00;;;;;;;3.97;0.70;;;4.70;99.90;;;;;;5057529;28;20434;-82
2022/02/08 00:27:26;;;;;;;7.40;1.20;;;4.70;99.90;;;;;;5057060;28;20459;-81
2022/02/08 00:29:51;;;;;;;2.30;1.27;;;4.70;99.90;;;;;;5057168;28;20510;-83
2022/02/08 00:32:17;;;;;;;6.03;0.47;;;4.70;99.90;;;;;;5074882;28;20225;-83
2022/02/08 00:34:42;;;;;;;4.50;1.03;;;4.70;99.90;;;;;;5075697;28;20171;-81
2022/02/08 00:37:08;;;;;;;11.07;1.03;;;4.70;99.90;;;;;;5075471;28;20176;-82
2022/02/08 00:39:35;;;;;;;10.53;1.30;;;4.70;99.90;;;;;;5075151;28;20706;-82
2022/02/08 00:42:09;;;;;;;6.20;0.73;;;4.60;99.90;;;;;;5074772;28;20252;-82
2022/02/08 00:44:43;;;;;;;3.10;0.77;;;4.60;99.90;;;;;;5075200;28;20413;-81
2022/02/08 00:47:17;;;;;;;3.03;1.23;;;4.50;99.90;;;;;;5074751;28;20419;-82
2022/02/08 00:49:44;;;;;;;13.70;1.70;;;4.50;99.90;;;;;;5074956;28;20410;-82
2022/02/08 00:52:15;;;;;;;7.90;1.00;;;4.60;99.90;;;;;;5074762;28;20474;-81
2022/02/08 00:54:46;;;;;;;11.07;1.73;;;4.60;99.90;;;;;;5074942;28;20422;-82
2022/02/08 00:57:12;;;;;;;10.93;1.30;;;4.60;99.90;;;;;;5074508;28;20753;-82
2022/02/08 00:59:40;;;;;;;9.20;1.20;;;4.60;99.90;;;;;;5074599;28;20419;-81
2022/02/08 01:02:06;;;;;;;5.67;1.10;;;4.60;99.90;;;;;;5074323;28;20419;-83
2022/02/08 01:04:33;;;;;;;5.63;1.57;;;4.50;99.90;;;;;;5074909;28;20411;-81
2022/02/08 01:07:06;;;;;;;7.23;0.63;;;4.40;99.90;;;;;;5074843;28;20926;-82
2022/02/08 01:09:47;;;;;;;9.90;0.93;;;4.40;99.90;;;;;;5056932;28;20403;-82
2022/02/08 01:12:14;;;;;;;5.00;0.90;;;4.40;99.90;;;;;;5073506;28;20477;-82
2022/02/08 01:14:42;;;;;;;10.57;1.37;;;4.50;99.90;;;;;;5074718;28;20891;-82
2022/02/08 01:17:09;;;;;;;6.97;1.13;;;4.50;99.90;;;;;;5074688;28;20418;-83
2022/02/08 01:19:36;;;;;;;9.33;0.87;;;4.50;99.90;;;;;;5074607;28;20407;-81
2022/02/08 01:22:02;;;;;;;5.17;1.50;;;4.60;99.90;;;;;;5074673;28;20523;-83
2022/02/08 01:24:27;;;;;;;8.07;0.90;;;4.60;99.90;;;;;;5074591;28;20500;-82
2022/02/08 01:27:03;;;;;;;5.57;1.40;;;4.60;99.90;;;;;;5074140;28;20599;-83
2022/02/08 01:29:51;;;;;;;7.80;1.90;;;4.60;99.90;;;;;;5074364;28;20228;-83
2022/02/08 01:37:44;;;;;;;5.97;1.23;;;4.70;99.90;;;;;;5074344;28;20771;-83
2022/02/08 01:42:47;;;;;;;5.57;0.93;;;4.80;99.90;;;;;;5074287;28;20895;-84
2022/02/08 01:48:10;;;;;;;6.37;0.63;;;4.80;99.90;;;;;;5074149;28;20767;-82
2022/02/08 01:50:37;;;;;;;6.07;1.23;;;4.70;99.90;;;;;;5074027;28;20782;-83
2022/02/08 01:53:06;;;;;;;10.27;1.27;;;4.20;99.90;;;;;;5074003;28;20783;-83
2022/02/08 01:55:32;;;;;;;4.17;1.37;;;4.70;99.90;;;;;;5073609;28;20407;-82
2022/02/08 01:57:59;;;;;;;11.53;1.43;;;4.60;99.90;;;;;;5073374;28;20927;-84
2022/02/08 02:00:24;;;;;;;7.83;1.07;;;4.60;99.90;;;;;;5074040;28;20410;-83
2022/02/08 02:02:53;;;;;;;4.27;0.73;;;4.70;99.90;;;;;;5074015;28;20854;-83
2022/02/08 02:05:18;;;;;;;3.67;0.83;;;4.70;99.90;;;;;;5073987;28;20161;-83
2022/02/08 02:07:49;;;;;;;4.90;1.07;;;4.70;99.90;;;;;;5073918;28;20524;-84
2022/02/08 02:10:19;;;;;;;2.63;1.03;;;4.70;99.90;;;;;;5073532;28;20513;-83
2022/02/08 02:12:59;;;;;;;4.17;0.97;;;4.80;99.90;;;;;;5073711;28;20463;-83
2022/02/08 02:15:26;;;;;;;8.80;3.17;;;4.70;99.90;;;;;;5073746;28;20421;-83
2022/02/08 02:17:52;;;;;;;6.23;2.10;;;4.70;99.90;;;;;;5073769;28;20477;-83
2022/02/08 02:20:19;;;;;;;5.97;2.10;;;4.70;99.90;;;;;;5073683;28;20423;-83
2022/02/08 02:22:45;;;;;;;7.63;2.13;;;4.70;99.90;;;;;;5073663;28;20474;-83
2022/02/08 02:25:25;;;;;;;8.10;2.70;;;4.70;99.90;;;;;;5073347;28;20942;-83
2022/02/08 02:27:57;;;;;;;13.37;2.60;;;4.70;99.90;;;;;;5073324;28;20419;-83
2022/02/08 02:30:25;;;;;;;7.23;1.77;;;4.70;99.90;;;;;;5073467;28;20420;-82
2022/02/08 02:32:51;;;;;;;13.30;3.07;;;4.70;99.90;;;;;;5073561;28;20473;-84
2022/02/08 02:35:17;;;;;;;9.63;2.50;;;4.70;99.90;;;;;;5073407;28;20415;-84
2022/02/08 02:37:42;;;;;;;9.30;2.67;;;4.70;99.90;;;;;;5073412;28;20427;-82
2022/02/08 02:40:09;;;;;;;6.17;2.40;;;4.70;99.90;;;;;;5073020;28;20169;-84
2022/02/08 02:42:34;;;;;;;15.73;2.57;;;4.60;99.90;;;;;;5073255;28;20181;-82
2022/02/08 02:45:02;;;;;;;6.87;2.63;;;4.60;99.90;;;;;;5073308;28;20400;-84
2022/02/08 02:47:28;;;;;;;8.33;4.13;;;4.60;99.90;;;;;;5073272;28;20505;-82
2022/02/08 02:49:56;;;;;;;8.93;2.40;;;4.60;99.90;;;;;;5073134;28;20414;-83
2022/02/08 02:52:22;;;;;;;13.13;2.83;;;4.60;99.90;;;;;;5072884;28;20212;-83
2022/02/08 02:54:48;;;;;;;10.30;3.30;;;4.60;99.90;;;;;;5073141;28;20403;-83
2022/02/08 02:57:15;;;;;;;5.53;2.50;;;4.60;99.90;;;;;;5072999;28;20180;-83
2022/02/08 02:59:42;;;;;;;9.90;4.10;;;4.60;99.90;;;;;;5073097;28;20430;-83
2022/02/08 03:05:12;;;;;;;5.90;2.00;;;4.70;99.90;;;;;;5031555;28;20914;-83
2022/02/08 03:18:39;;;;;;;8.60;3.57;;;4.90;99.90;;;;;;5073054;28;20402;-83
2022/02/08 03:21:07;;;;;;;8.53;4.97;;;4.90;99.90;;;;;;5054914;28;20951;-82
2022/02/08 03:23:34;;;;;;;11.60;4.87;;;5.00;99.90;;;;;;5072699;28;20415;-82
2022/02/08 03:25:59;;;;;;;10.10;4.73;;;5.00;99.90;;;;;;5054457;28;20425;-82
2022/02/08 03:28:25;;;;;;;9.90;4.50;;;5.00;99.90;;;;;;5072565;28;20973;-83
2022/02/08 03:30:51;;;;;;;16.80;6.33;;;5.00;99.90;;;;;;5072553;28;20193;-82
2022/02/08 03:33:17;;;;;;;13.57;5.93;;;5.00;99.90;;;;;;5072719;28;20260;-82
2022/02/08 03:35:44;;;;;;;12.63;6.50;;;5.10;99.90;;;;;;5072619;28;20162;-82
2022/02/08 03:38:12;;;;;;;11.97;4.10;;;5.10;99.90;;;;;;5072656;28;20514;-83
2022/02/08 03:40:41;;;;;;;19.40;6.23;;;5.10;99.90;;;;;;5072254;28;20468;-83
2022/02/08 03:43:29;;;;;;;12.93;5.03;;;5.20;99.90;;;;;;5054532;28;20440;-82
2022/02/08 03:45:58;;;;;;;12.67;5.93;;;5.20;99.90;;;;;;5054641;28;20459;-83
2022/02/08 03:48:27;;;;;;;13.23;5.90;;;5.20;99.90;;;;;;5054546;28;20466;-82
2022/02/08 03:50:56;;;;;;;15.20;5.77;;;5.20;99.90;;;;;;5054434;28;20978;-83
2022/02/08 03:53:25;;;;;;;13.50;5.47;;;5.30;99.90;;;;;;5072527;28;20423;-84
2022/02/08 03:55:51;;;;;;;10.40;6.33;;;5.30;99.90;;;;;;5072186;28;20431;-82
2022/02/08 03:58:20;;;;;;;12.67;5.47;;;5.30;99.90;;;;;;5071882;28;20455;-82
2022/02/08 04:01:15;;;;;;;8.60;6.10;;;5.30;99.90;;;;;;5072354;28;20169;-83
2022/02/08 04:03:43;;;;;;;17.63;8.30;;;5.30;99.90;;;;;;5071768;28;20430;-83
2022/02/08 04:06:09;;;;;;;11.07;6.67;;;5.30;99.90;;;;;;5072429;28;20464;-83
2022/02/08 04:08:35;;;;;;;16.83;9.13;;;5.40;99.90;;;;;;5072305;28;20473;-83
2022/02/08 04:11:01;;;;;;;16.33;6.33;;;5.40;99.90;;;;;;5071969;28;20291;-83
2022/02/08 04:13:35;;;;;;;16.27;8.20;;;5.40;99.90;;;;;;5072304;28;20832;-82
2022/02/08 04:16:07;;;;;;;15.20;9.37;;;5.40;99.90;;;;;;5054316;28;20419;-83
2022/02/08 04:34:59;;;;;;;16.50;10.70;;;5.70;99.90;;;;;;5076051;28;20981;-83
2022/02/08 04:43:05;;;;;;;22.87;12.50;;;5.80;99.90;;;;;;5075930;28;20239;-84
2022/02/08 04:45:43;;;;;;;21.17;9.97;;;5.80;99.90;;;;;;5075560;28;20416;-83
2022/02/08 04:48:55;;;;;;;16.60;10.30;;;5.80;99.90;;;;;;5075579;28;20419;-84
2022/02/08 04:51:06;;;;;;;16.73;10.53;;;5.80;99.90;;;;;;5064587;28;20462;-83
2022/02/08 04:53:39;;;;;;;17.33;9.00;;;5.90;99.90;;;;;;5075456;28;20460;-82
2022/02/08 04:56:37;;;;;;;16.90;9.40;;;5.90;99.90;;;;;;5074936;28;20404;-82
2022/02/08 05:01:58;;;;;;;20.00;9.43;;;6.40;99.90;;;;;;5075227;28;20838;-82
2022/02/08 05:37:41;;;;;;;15.20;10.40;;;6.30;99.90;;;;;;5074600;28;20924;-81
2022/02/08 05:43:11;;;;;;;17.97;10.23;;;6.30;99.90;;;;;;5074781;28;20485;-82
2022/02/08 05:46:02;;;;;;;14.10;9.63;;;6.40;99.90;;;;;;5074181;28;20443;-82
2022/02/08 05:48:28;;;;;;;19.70;11.33;;;6.50;99.90;;;;;;5074054;28;20466;-80
2022/02/08 05:51:00;;;;;;;15.93;8.77;;;6.50;99.90;;;;;;5074200;28;20467;-80
2022/02/08 05:53:30;;;;;;;18.73;10.50;;;6.50;99.90;;;;;;5084023;28;20467;-82
2022/02/08 05:55:56;;;;;;;19.63;10.30;;;6.50;99.90;;;;;;5082716;28;20942;-82
2022/02/08 05:58:22;;;;;;;14.70;9.40;;;6.50;99.90;;;;;;5064386;28;20482;-81
2022/02/08 06:00:47;;;;;;;20.37;11.90;;;6.50;99.90;;;;;;5083923;28;20169;-83
2022/02/08 06:03:13;;;;;;;16.93;12.50;;;6.50;99.90;;;;;;5082410;28;20413;-81
2022/02/08 06:05:39;;;;;;;18.90;10.60;;;6.60;99.90;;;;;;5082500;28;20417;-84
2022/02/08 06:08:05;;;;;;;14.67;10.00;;;6.50;99.90;;;;;;5083581;28;20199;-82
2022/02/08 06:10:31;;;;;;;16.07;10.40;;;6.60;99.90;;;;;;5063771;28;20411;-83
2022/02/08 06:12:57;;;;;;;25.07;12.60;;;6.60;99.90;;;;;;5082348;28;20206;-84
2022/02/08 06:15:25;;;;;;;17.50;11.73;;;6.60;99.90;;;;;;5083335;28;20416;-83
2022/02/08 06:17:55;;;;;;;17.93;11.77;;;6.50;99.90;;;;;;5081719;28;20405;-81
2022/02/08 06:20:21;;;;;;;17.47;10.93;;;6.60;99.90;;;;;;5081907;28;20427;-83
2022/02/08 06:22:47;;;;;;;28.00;13.83;;;6.60;99.90;;;;;;5057888;28;20425;-83
2022/02/08 06:25:16;;;;;;;22.93;11.80;;;6.50;99.90;;;;;;5072378;28;20415;-83
2022/02/08 06:27:42;;;;;;;26.40;11.93;;;6.60;99.90;;;;;;5071799;28;20514;-82
2022/02/08 06:30:09;;;;;;;21.80;12.30;;;6.60;99.90;;;;;;5072541;28;20876;-82
2022/02/08 06:32:36;;;;;;;23.87;13.77;;;6.60;99.90;;;;;;5073497;28;20831;-82
2022/02/08 06:35:08;;;;;;;23.63;12.73;;;6.60;99.90;;;;;;5073481;28;20423;-83
2022/02/08 06:37:34;;;;;;;18.87;12.70;;;6.60;99.90;;;;;;5073450;28;20415;-84
2022/02/08 06:40:00;;;;;;;32.03;13.67;;;6.60;99.90;;;;;;5073034;28;20417;-83
2022/02/08 06:42:28;;;;;;;27.73;13.70;;;6.60;99.90;;;;;;5055507;28;20506;-83
2022/02/08 06:44:54;;;;;;;22.07;13.13;;;6.60;99.90;;;;;;5072848;28;20185;-83
2022/02/08 06:47:20;;;;;;;23.57;13.03;;;6.70;99.90;;;;;;5038537;28;20420;-83
2022/02/08 06:49:46;;;;;;;25.43;13.43;;;6.70;99.90;;;;;;5073146;28;20461;-82
2022/02/08 06:52:11;;;;;;;26.00;15.00;;;6.70;99.90;;;;;;5073186;28;20306;-82
2022/02/08 06:54:37;;;;;;;24.40;13.80;;;6.70;99.90;;;;;;5054816;28;20171;-83
2022/02/08 06:57:02;;;;;;;21.33;13.20;;;6.70;99.90;;;;;;5073056;28;20176;-83
2022/02/08 06:59:30;;;;;;;29.20;15.47;;;6.70;99.90;;;;;;5072938;28;20165;-81
2022/02/08 07:01:56;;;;;;;23.90;15.20;;;6.80;99.90;;;;;;5072995;28;20518;-83
2022/02/08 07:04:21;;;;;;;27.43;15.50;;;6.80;99.90;;;;;;5073008;28;20931;-83
2022/02/08 07:06:47;;;;;;;23.73;14.47;;;6.80;99.90;;;;;;5054670;28;20184;-82
2022/02/08 07:09:14;;;;;;;27.90;15.03;;;6.90;99.90;;;;;;5072621;28;20558;-82
2022/02/08 07:11:44;;;;;;;20.57;13.00;;;6.90;99.90;;;;;;5055219;28;20740;-83
2022/02/08 07:14:10;;;;;;;26.73;16.13;;;6.90;99.90;;;;;;5072897;28;20505;-84
2022/02/08 07:16:35;;;;;;;27.37;14.30;;;6.90;99.90;;;;;;5072952;28;20496;-83
2022/02/08 07:19:04;;;;;;;28.50;16.53;;;7.00;99.90;;;;;;5072978;28;20176;-82
2022/02/08 07:21:29;;;;;;;26.60;14.60;;;6.90;99.90;;;;;;5054959;28;20171;-83
2022/02/08 07:23:55;;;;;;;31.83;15.93;;;7.00;99.90;;;;;;5073046;28;20478;-83
2022/02/08 07:26:23;;;;;;;24.40;15.60;;;7.00;99.90;;;;;;5072294;28;20649;-84
2022/02/08 07:29:10;;;;;;;26.10;14.53;;;7.10;99.90;;;;;;5054857;28;20238;-83
2022/02/08 07:31:40;;;;;;;24.20;14.27;;;7.10;99.90;;;;;;5056927;28;20477;-83
2022/02/08 07:34:17;;;;;;;28.93;15.80;;;7.10;99.90;;;;;;5072750;28;20759;-83
2022/02/08 07:36:49;;;;;;;25.10;15.50;;;7.10;99.90;;;;;;5072690;28;20481;-84
2022/02/08 07:39:25;;;;;;;27.80;14.20;;;7.20;99.90;;;;;;5072435;28;20769;-83
2022/02/08 07:41:50;;;;;;;28.13;14.07;;;7.20;99.90;;;;;;5072747;28;20994;-84
2022/02/08 07:44:22;;;;;;;27.90;15.00;;;7.20;99.90;;;;;;5072574;28;20507;-84
2022/02/08 07:46:47;;;;;;;22.90;13.83;;;7.20;99.90;;;;;;5054378;28;20177;-84
2022/02/08 07:49:13;;;;;;;22.67;13.50;;;7.30;99.90;;;;;;5072688;28;20409;-83
2022/02/08 07:51:41;;;;;;;29.17;16.17;;;7.20;99.90;;;;;;5072504;28;20208;-83
2022/02/08 07:54:06;;;;;;;27.10;14.70;;;7.20;99.90;;;;;;5072197;28;20423;-83
2022/02/08 07:56:32;;;;;;;25.23;13.40;;;7.20;99.90;;;;;;5055986;28;20424;-83
2022/02/08 07:58:57;;;;;;;27.90;15.13;;;7.20;99.90;;;;;;5076494;28;20650;-84
2022/02/08 08:01:26;;;;;;;24.03;15.00;;;7.20;99.90;;;;;;5076447;28;20179;-84
2022/02/08 08:03:54;;;;;;;28.10;18.17;;;7.20;99.90;;;;;;5076406;28;20229;-84
2022/02/08 08:06:20;;;;;;;27.20;16.63;;;7.20;99.90;;;;;;5076401;28;20420;-83
2022/02/08 08:08:47;;;;;;;30.00;15.57;;;7.20;99.90;;;;;;5076346;28;20474;-84
2022/02/08 08:11:17;;;;;;;25.90;14.33;;;7.30;99.90;;;;;;5075839;28;20464;-83
2022/02/08 08:21:42;;;;;;;20.53;14.40;;;7.30;99.90;;;;;;5076017;28;20421;-83
2022/02/08 08:24:13;;;;;;;25.40;14.73;;;7.40;99.90;;;;;;5075506;28;20512;-82
2022/02/08 08:26:38;;;;;;;35.67;17.73;;;7.30;99.90;;;;;;5075936;28;20412;-82
2022/02/08 08:29:04;;;;;;;22.40;12.90;;;7.40;99.90;;;;;;5075644;28;20452;-82
2022/02/08 08:31:29;;;;;;;26.30;13.97;;;7.40;99.90;;;;;;5075755;28;20776;-84
2022/02/08 08:33:55;;;;;;;24.60;13.73;;;7.40;99.90;;;;;;5075775;28;20171;-84
2022/02/08 08:36:22;;;;;;;26.90;14.77;;;7.40;99.90;;;;;;5075647;28;20519;-84
2022/02/08 08:38:51;;;;;;;23.50;13.40;;;7.40;99.90;;;;;;5075575;28;20193;-84
2022/02/08 08:41:36;;;;;;;21.87;13.57;;;7.40;99.90;;;;;;5075637;28;20425;-83
2022/02/08 08:52:10;;;;;;;22.00;13.53;;;7.60;99.90;;;;;;5075536;28;20472;-84
2022/02/08 08:54:35;;;;;;;25.07;13.63;;;7.60;99.90;;;;;;5075173;28;20423;-84
2022/02/08 08:57:04;;;;;;;24.27;14.03;;;7.60;99.90;;;;;;5075364;28;20417;-84
2022/02/08 08:59:29;;;;;;;20.30;13.80;;;7.50;99.90;;;;;;5075329;28;20233;-84
2022/02/08 09:01:55;;;;;;;21.37;13.50;;;7.60;99.90;;;;;;5075253;28;20420;-84
2022/02/08 09:04:20;;;;;;;21.37;13.60;;;7.70;99.90;;;;;;5075200;28;20178;-84
2022/02/08 09:06:50;;;;;;;20.13;11.90;;;7.70;99.90;;;;;;5056859;28;20230;-84
2022/02/08 09:09:19;;;;;;;18.47;12.30;;;7.70;99.90;;;;;;5056912;28;20222;-82
2022/02/08 09:11:56;;;;;;;20.30;15.37;;;7.70;99.90;;;;;;5074962;28;20541;-82
2022/02/08 09:14:36;;;;;;;23.40;13.30;;;7.70;99.90;;;;;;5075211;28;20419;-83
2022/02/08 09:17:33;;;;;;;19.73;11.60;;;7.80;99.90;;;;;;5057164;28;20429;-83
2022/02/08 09:20:12;;;;;;;17.80;9.60;;;7.80;99.90;;;;;;5074764;28;20783;-83
2022/02/08 09:25:18;;;;;;;13.80;8.40;;;7.90;99.90;;;;;;5074582;28;20414;-83
2022/02/08 09:27:59;;;;;;;17.07;9.60;;;7.90;99.90;;;;;;5074686;28;20606;-82
2022/02/08 09:30:37;;;;;;;16.90;9.50;;;8.00;99.90;;;;;;5056796;28;20940;-83
2022/02/08 09:33:02;;;;;;;12.23;8.13;;;8.00;99.90;;;;;;5056670;28;20509;-83
2022/02/08 09:35:28;;;;;;;11.33;7.23;;;8.10;99.90;;;;;;5056845;28;20417;-82
2022/02/08 09:37:54;;;;;;;11.70;8.30;;;8.20;99.90;;;;;;5074736;28;20175;-83
2022/02/08 09:40:23;;;;;;;13.13;7.13;;;8.20;99.90;;;;;;5074153;28;20198;-82
2022/02/08 09:42:56;;;;;;;17.63;7.90;;;7.80;99.90;;;;;;5074382;28;20217;-83
2022/02/08 09:45:23;;;;;;;12.87;6.70;;;8.20;99.90;;;;;;5074451;28;20437;-83
2022/02/08 09:48:02;;;;;;;11.67;5.70;;;8.30;99.90;;;;;;5074181;28;20898;-83
2022/02/08 09:50:32;;;;;;;8.30;5.40;;;8.30;99.90;;;;;;5074161;28;20916;-82
2022/02/08 09:53:01;;;;;;;9.53;6.60;;;8.30;99.90;;;;;;5074037;28;20465;-83
2022/02/08 09:55:30;;;;;;;9.37;5.13;;;8.30;99.90;;;;;;5073754;28;20409;-82
2022/02/08 09:57:56;;;;;;;8.27;5.13;;;8.40;99.90;;;;;;5073999;28;20425;-83
2022/02/08 10:00:23;;;;;;;9.37;3.93;;;8.40;99.90;;;;;;5073915;28;20535;-82
2022/02/08 10:02:49;;;;;;;5.90;4.80;;;8.50;99.90;;;;;;5073956;28;20926;-82
2022/02/08 10:05:14;;;;;;;9.10;5.83;;;8.50;99.90;;;;;;5073898;28;20422;-82
2022/02/08 10:07:41;;;;;;;8.40;4.23;;;8.50;99.90;;;;;;5073943;28;20418;-82
2022/02/08 10:10:32;;;;;;;8.70;4.87;;;8.50;99.90;;;;;;5073518;28;20178;-82
2022/02/08 10:13:12;;;;;;;19.50;4.97;;;8.60;99.90;;;;;;5052805;28;20480;-83
2022/02/08 10:23:59;;;;;;;9.83;3.80;;;8.60;99.90;;;;;;5073470;28;20936;-82
2022/02/08 10:26:35;;;;;;;10.80;3.90;;;8.60;99.90;;;;;;5055720;28;20436;-81
2022/02/08 10:29:23;;;;;;;10.10;3.57;;;8.60;99.90;;;;;;5055786;28;20461;-83
2022/02/08 10:40:04;;;;;;;9.67;5.40;;;8.70;99.90;;;;;;5073772;28;20445;-81
2022/02/08 10:42:30;;;;;;;9.80;3.90;;;8.70;99.90;;;;;;5073541;28;20497;-81
2022/02/08 10:44:57;;;;;;;7.00;4.70;;;8.70;99.90;;;;;;5073314;28;20496;-82
2022/02/08 10:47:40;;;;;;;13.00;4.33;;;8.70;99.90;;;;;;5073368;28;20405;-83
2022/02/08 10:50:10;;;;;;;6.60;3.47;;;8.70;99.90;;;;;;5073303;28;20405;-84
2022/02/08 10:52:38;;;;;;;7.90;3.10;;;8.70;99.90;;;;;;5055016;28;20472;-83
2022/02/08 10:55:21;;;;;;;14.90;4.67;;;8.70;99.90;;;;;;5072670;28;20410;-82
2022/02/08 11:00:37;;;;;;;5.33;2.90;;;8.70;99.90;;;;;;5072929;28;20477;-84
2022/02/08 11:03:09;;;;;;;5.20;3.23;;;8.70;99.90;;;;;;5072906;28;20913;-84
2022/02/08 11:06:02;;;;;;;5.30;2.60;;;8.70;99.90;;;;;;5072815;28;20441;-82
2022/02/08 11:08:45;;;;;;;7.40;3.03;;;8.70;99.90;;;;;;5057175;28;20436;-83
2022/02/08 11:17:12;;;;;;;7.30;4.93;;;8.80;99.90;;;;;;5072797;28;20418;-85
2022/02/08 11:20:09;;;;;;;5.53;3.87;;;8.70;99.90;;;;;;5072390;28;20441;-83
2022/02/08 11:25:29;;;;;;;6.90;2.23;;;8.70;99.90;;;;;;5072260;28;20418;-82
2022/02/08 11:28:15;;;;;;;8.90;2.77;;;8.80;99.90;;;;;;5072426;28;20475;-84
2022/02/08 11:39:42;;;;;;;8.03;2.90;;;8.80;99.90;;;;;;5072486;28;20426;-83
2022/02/08 11:45:38;;;;;;;6.93;2.17;;;8.80;99.90;;;;;;5072524;28;20409;-84
2022/02/08 11:49:23;;;;;;;7.30;1.70;;;8.80;99.90;;;;;;5072399;28;20510;-85
2022/02/08 11:51:34;;;;;;;9.67;2.33;;;8.80;99.90;;;;;;5058670;28;20790;-85
2022/02/08 11:54:31;;;;;;;6.20;2.37;;;8.80;99.90;;;;;;5071768;28;20449;-82
2022/02/08 11:59:51;;;;;;;5.63;2.43;;;8.80;99.90;;;;;;5072301;28;20859;-83
2022/02/08 12:05:13;;;;;;;5.73;1.73;;;8.80;99.90;;;;;;5072140;28;20505;-84
2022/02/08 12:07:52;;;;;;;11.10;2.17;;;8.90;99.90;;;;;;5072259;28;20408;-85
2022/02/08 12:10:36;;;;;;;8.30;2.83;;;8.80;99.90;;;;;;5071876;28;20528;-84
2022/02/08 12:50:05;;;;;;;10.13;2.40;;;9.00;99.90;;;;;;5075662;28;20465;-83
2022/02/08 12:57:53;;;;;;;10.07;2.17;;;9.10;99.90;;;;;;5075716;28;20837;-90
2022/02/08 13:03:51;;;;;;;5.10;1.80;;;8.90;99.90;;;;;;5074305;28;20414;-87
2022/02/08 13:15:12;;;;;;;3.93;1.27;;;9.00;99.90;;;;;;5074288;28;20444;-86
2022/02/08 13:18:20;;;;;;;3.80;1.70;;;8.90;99.90;;;;;;5073079;28;20412;-84
2022/02/08 13:20:19;;;;;;;6.47;1.47;;;8.90;99.90;;;;;;5074401;28;20921;-83
2022/02/08 14:06:25;;;;;;;6.73;1.60;;;8.90;99.90;;;;;;5094843;28;20406;-88
2022/02/08 14:19:28;;;;;;;3.87;0.53;;;8.90;99.90;;;;;;5094555;28;20328;-88
2022/02/08 14:22:09;;;;;;;1.87;0.70;;;8.90;99.90;;;;;;5093412;28;20414;-84
2022/02/08 14:29:52;;;;;;;2.83;0.60;;;9.00;99.90;;;;;;5094602;28;20817;-87
2022/02/08 15:10:22;;;;;;;1.13;0.47;;;8.90;99.90;;;;;;5093357;28;20486;-79
2022/02/08 15:12:54;;;;;;;7.40;0.20;;;8.90;99.90;;;;;;5093173;28;20552;-80
2022/02/08 15:17:52;;;;;;;1.47;0.93;;;9.00;99.90;;;;;;5076239;28;20425;-79
2022/02/08 15:20:17;;;;;;;3.73;0.80;;;8.90;99.90;;;;;;5092958;28;20399;-82
2022/02/08 15:22:43;;;;;;;1.70;0.20;;;8.90;99.90;;;;;;5061630;28;20181;-79
2022/02/08 15:25:13;;;;;;;4.53;0.50;;;8.90;99.90;;;;;;5082868;28;20176;-79
2022/02/08 15:27:41;;;;;;;1.40;0.60;;;8.90;99.90;;;;;;5072319;28;20165;-80
2022/02/08 15:30:08;;;;;;;1.20;0.30;;;8.90;99.90;;;;;;5072468;28;20548;-82
2022/02/08 15:32:35;;;;;;;3.07;0.20;;;8.90;99.90;;;;;;5054423;28;20813;-81
2022/02/08 15:35:08;;;;;;;3.10;0.27;;;8.90;99.90;;;;;;5072478;28;20426;-79
2022/02/08 15:37:33;;;;;;;1.83;0.40;;;8.90;99.90;;;;;;5072295;28;20429;-78
2022/02/08 15:40:00;;;;;;;1.53;0.30;;;8.80;99.90;;;;;;5054012;28;20407;-81
2022/02/08 15:42:40;;;;;;;0.60;0.20;;;8.90;99.90;;;;;;5054360;28;20634;-79
2022/02/08 15:45:54;;;;;;;1.83;0.43;;;8.80;99.90;;;;;;5072380;28;20417;-80
2022/02/08 15:47:59;;;;;;;2.03;0.30;;;8.80;99.90;;;;;;5061223;28;20423;-80
2022/02/08 15:50:45;;;;;;;0.87;0.20;;;8.90;99.90;;;;;;5072039;28;21001;-81
2022/02/08 15:53:25;;;;;;;1.17;0.40;;;8.80;99.90;;;;;;5071581;28;20469;-81
2022/02/08 15:56:20;;;;;;;1.67;0.40;;;8.80;99.90;;;;;;5054358;28;20471;-80
2022/02/08 16:01:11;;;;;;;1.13;0.53;;;8.80;99.90;;;;;;5072289;28;20425;-80
2022/02/08 16:08:59;;;;;;;1.03;0.33;;;8.80;99.90;;;;;;5071746;28;20496;-80
2022/02/08 16:11:48;;;;;;;1.23;0.40;;;8.80;99.90;;;;;;5054214;28;20461;-80
2022/02/08 16:14:34;;;;;;;1.60;0.60;;;8.70;99.90;;;;;;5086572;28;20516;-81
2022/02/08 16:17:27;;;;;;;1.07;0.30;;;8.70;99.90;;;;;;5093492;28;20428;-80
2022/02/08 16:22:53;;;;;;;1.10;0.40;;;8.70;99.90;;;;;;5074374;28;20411;-85
2022/02/08 16:25:37;;;;;;;0.90;0.30;;;8.70;99.90;;;;;;5076852;28;20176;-86
2022/02/08 16:28:21;;;;;;;1.20;0.73;;;8.70;99.90;;;;;;5081915;28;20823;-87
2022/02/08 16:31:19;;;;;;;0.67;0.40;;;8.70;99.90;;;;;;5095080;28;20407;-84
2022/02/08 16:34:01;;;;;;;1.33;0.67;;;8.70;99.90;;;;;;5094602;28;20425;-85
2022/02/08 16:51:00;;;;;;;1.67;1.03;;;8.70;99.90;;;;;;5076255;28;20518;-82
2022/02/08 16:53:09;;;;;;;1.63;0.57;;;8.60;99.90;;;;;;5075733;28;20828;-83
2022/02/08 16:55:48;;;;;;;1.67;0.40;;;8.60;99.90;;;;;;5089063;28;20421;-82
2022/02/08 17:00:46;;;;;;;2.20;0.53;;;8.70;99.90;;;;;;5075209;28;20429;-82
2022/02/08 17:03:12;;;;;;;2.97;0.40;;;8.60;99.90;;;;;;5075025;28;20406;-83
2022/02/08 17:05:38;;;;;;;2.70;1.00;;;8.60;99.90;;;;;;5057069;28;20421;-82
2022/02/08 17:08:03;;;;;;;1.30;0.70;;;8.60;99.90;;;;;;5056587;28;20179;-83
2022/02/08 17:10:36;;;;;;;1.90;1.20;;;8.60;99.90;;;;;;5075051;28;20175;-82
2022/02/08 17:18:44;;;;;;;0.83;0.40;;;8.50;99.90;;;;;;5074782;28;20925;-82
2022/02/08 17:38:26;;;;;;;2.20;0.77;;;8.40;99.90;;;;;;5094785;28;20474;-84
2022/02/08 17:47:53;;;;;;;1.70;0.30;;;8.30;99.90;;;;;;5094707;28;20409;-84
2022/02/08 17:50:19;;;;;;;3.30;0.90;;;8.30;99.90;;;;;;5074720;28;20430;-83
2022/02/08 17:52:47;;;;;;;2.60;0.40;;;8.30;99.90;;;;;;5089611;28;20297;-88
2022/02/08 17:55:14;;;;;;;1.67;0.50;;;8.30;99.90;;;;;;5076018;28;20455;-89
2022/02/08 17:57:40;;;;;;;3.70;1.00;;;8.30;99.90;;;;;;5063204;28;20515;-88
2022/02/08 18:00:08;;;;;;;1.63;0.40;;;8.30;99.90;;;;;;5076722;28;20903;-85
2022/02/08 18:02:42;;;;;;;4.60;1.20;;;8.30;99.90;;;;;;5075843;28;20419;-86
2022/02/08 18:05:08;;;;;;;3.10;1.47;;;8.30;99.90;;;;;;5075908;28;20461;-86
2022/02/08 18:07:36;;;;;;;5.60;1.10;;;8.30;99.90;;;;;;5074604;28;20421;-86
2022/02/08 18:10:12;;;;;;;2.80;0.93;;;8.30;99.90;;;;;;5073545;28;20425;-86
2022/02/08 18:12:41;;;;;;;1.30;0.93;;;8.30;99.90;;;;;;5056499;28;20470;-87
2022/02/08 18:15:11;;;;;;;2.20;1.10;;;8.30;99.90;;;;;;5057032;28;20470;-88
2022/02/08 18:18:01;;;;;;;2.70;0.67;;;8.30;99.90;;;;;;5056648;28;20492;-86
2022/02/08 18:20:39;;;;;;;2.73;1.90;;;8.30;99.90;;;;;;5075927;28;20398;-88
2022/02/08 18:27:19;;;;;;;1.70;0.50;;;8.30;99.90;;;;;;5030112;28;20512;-87
2022/02/08 18:52:49;;;;;;;1.97;1.17;;;8.30;99.90;;;;;;5097579;28;20440;-86
2022/02/08 19:12:35;;;;;;;1.90;0.53;;;8.30;99.90;;;;;;4972239;28;20986;-87
2022/02/08 19:18:03;;;;;;;2.00;0.40;;;8.40;99.90;;;;;;5028926;28;20428;-86
2022/02/08 19:20:38;;;;;;;2.77;0.60;;;8.40;99.90;;;;;;5056259;28;20836;-88
2022/02/08 19:23:04;;;;;;;1.70;0.73;;;8.40;99.90;;;;;;5072789;28;20413;-86
2022/02/08 19:25:29;;;;;;;1.87;1.17;;;8.40;99.90;;;;;;5054586;28;20501;-84
2022/02/08 19:27:57;;;;;;;2.37;1.03;;;8.30;99.90;;;;;;5072759;28;20250;-85
2022/02/08 19:30:23;;;;;;;2.37;1.73;;;8.40;99.90;;;;;;5056675;28;20176;-87
2022/02/08 19:32:49;;;;;;;3.63;0.97;;;8.40;99.90;;;;;;5074845;28;20836;-86
2022/02/08 19:35:15;;;;;;;3.57;1.27;;;8.40;99.90;;;;;;5055603;28;20510;-88
2022/02/08 19:37:44;;;;;;;2.73;1.30;;;8.40;99.90;;;;;;5075001;28;20175;-88
2022/02/08 19:40:10;;;;;;;2.33;0.90;;;8.40;99.90;;;;;;5077701;28;20510;-89
2022/02/08 19:42:36;;;;;;;3.13;1.20;;;8.40;99.90;;;;;;5079326;28;21165;-85
2022/02/08 19:45:42;;;;;;;1.60;1.03;;;8.40;99.90;;;;;;5097388;28;20443;-87
2022/02/08 19:47:58;;;;;;;2.50;1.20;;;8.40;99.90;;;;;;5092644;28;20179;-86
2022/02/08 19:50:25;;;;;;;2.43;1.37;;;8.40;99.90;;;;;;5096826;28;20418;-87
2022/02/08 19:52:51;;;;;;;1.83;0.70;;;8.40;99.90;;;;;;5099955;28;20473;-88
2022/02/08 19:57:54;;;;;;;2.30;1.20;;;8.40;99.90;;;;;;5101846;28;20292;-89
2022/02/08 20:00:25;;;;;;;4.33;1.97;;;8.40;99.90;;;;;;5083621;28;20424;-87